Andrew, Iowa
Current Conditions -  °F | °C
As of 9:13 AM on Friday 19 Dec 2014 (Local Time) from KDBQ Reporting Station
Overcast Overcast  
Wind Chill: 18°   Ceiling: 1300
Heat Index: 24°   Visibility: 9mi
Dew Point: 19°   Wind: 5mph
Humidity: 81%   Direction: 110°ESE
Pressure: 30.29"   Gusts: NA
Location:  42.15°N, 90.59°W
Report Text: KDBQ 191513Z 11004KT 9SM BKN013 OVC070 M04/M07 A3029 RMK AO2 T10441072 $
Loading
Personal Weather Stations






























Interactive Weather Map New forecast layout! Learn more

10-Day Weather Forecast

Advertisements
Track Severe Weather on mobile